Time;durP1;ratioP1;P1;durP2;ratioP2;P2;SDS_P1;SDS_P2;PMS_P1;PMS_P2;Temp;Humidity;BMP_temperature;BMP_pressure;BME280_temperature;BME280_humidity;BME280_pressure;Samples;Min_cycle;Max_cycle;Signal;HPM_P1;HPM_P2
2022/11/08 00:01:43;;;;;;;4.83;1.50;;;13.40;99.90;;;;;;5081438;28;20198;-46
2022/11/08 00:04:13;;;;;;;4.90;1.50;;;13.40;99.90;;;;;;5079143;28;20228;-45
2022/11/08 00:14:56;;;;;;;5.63;1.67;;;13.40;99.90;;;;;;5079997;28;20217;-47
2022/11/08 00:17:24;;;;;;;4.53;1.83;;;13.40;99.90;;;;;;5083507;28;20970;-45
2022/11/08 00:19:51;;;;;;;5.20;1.57;;;13.50;99.90;;;;;;5085241;28;20198;-47
2022/11/08 00:22:19;;;;;;;5.87;1.80;;;13.50;99.90;;;;;;5084611;28;20182;-45
2022/11/08 00:24:47;;;;;;;4.20;1.60;;;13.50;99.90;;;;;;5086069;28;20351;-49
2022/11/08 00:27:16;;;;;;;4.17;1.80;;;13.50;99.90;;;;;;5081139;28;20210;-44
2022/11/08 00:29:43;;;;;;;5.90;1.40;;;13.50;99.90;;;;;;5086455;28;20204;-45
2022/11/08 00:32:15;;;;;;;4.93;1.67;;;13.50;99.90;;;;;;5076044;28;20220;-45
2022/11/08 00:34:42;;;;;;;3.10;1.60;;;13.60;99.90;;;;;;5085562;28;20233;-46
2022/11/08 00:37:09;;;;;;;4.17;1.50;;;13.60;99.90;;;;;;5082122;28;20190;-45
2022/11/08 00:39:36;;;;;;;3.83;1.70;;;13.60;99.90;;;;;;5086164;28;20619;-46
2022/11/08 00:42:03;;;;;;;2.73;1.43;;;13.60;99.90;;;;;;5080891;28;20213;-47
2022/11/08 00:44:30;;;;;;;3.63;1.43;;;13.60;99.90;;;;;;5085830;28;20221;-48
2022/11/08 00:46:57;;;;;;;3.23;1.40;;;13.60;99.90;;;;;;5079685;28;20205;-46
2022/11/08 00:49:25;;;;;;;2.23;1.20;;;13.60;99.90;;;;;;5083406;28;20197;-45
2022/11/08 00:51:52;;;;;;;3.17;1.50;;;13.60;99.90;;;;;;5084531;28;20197;-46
2022/11/08 00:54:20;;;;;;;3.10;1.20;;;13.50;99.90;;;;;;5083639;28;20287;-44
2022/11/08 00:56:48;;;;;;;2.57;1.30;;;13.60;99.90;;;;;;5085343;28;20205;-44
2022/11/08 00:59:16;;;;;;;5.50;1.57;;;13.50;99.90;;;;;;5081261;28;20202;-44
2022/11/08 01:01:44;;;;;;;5.13;1.40;;;13.50;99.90;;;;;;5085203;28;20185;-45
2022/11/08 01:04:13;;;;;;;6.43;1.80;;;13.50;99.90;;;;;;5075743;28;20947;-45
2022/11/08 01:06:41;;;;;;;6.57;1.77;;;13.50;99.90;;;;;;5085410;28;20244;-46
2022/11/08 01:09:08;;;;;;;7.30;1.87;;;13.50;99.90;;;;;;5081748;28;20276;-44
2022/11/08 01:11:35;;;;;;;2.67;1.40;;;13.40;99.90;;;;;;5085521;28;20223;-47
2022/11/08 01:14:02;;;;;;;3.47;1.60;;;13.40;99.90;;;;;;5079949;28;20218;-49
2022/11/08 01:16:32;;;;;;;5.03;1.43;;;13.40;99.90;;;;;;5085428;28;20198;-45
2022/11/08 01:19:00;;;;;;;3.00;1.80;;;13.40;99.90;;;;;;5075856;28;20418;-46
2022/11/08 01:21:27;;;;;;;3.43;1.50;;;13.40;99.90;;;;;;5084664;28;20194;-45
2022/11/08 01:23:56;;;;;;;6.70;2.10;;;13.40;99.90;;;;;;5083263;28;20567;-46
2022/11/08 01:26:25;;;;;;;3.70;2.60;;;13.40;99.90;;;;;;5083846;28;20251;-47
2022/11/08 01:28:52;;;;;;;4.17;1.93;;;13.30;99.90;;;;;;5082087;28;20659;-48
2022/11/08 01:31:21;;;;;;;6.30;2.27;;;13.30;99.90;;;;;;5083093;28;20247;-45
2022/11/08 01:33:49;;;;;;;2.40;1.47;;;13.30;99.90;;;;;;5081944;28;20214;-45
2022/11/08 01:36:17;;;;;;;4.43;1.50;;;13.30;99.90;;;;;;5078949;28;20217;-45
2022/11/08 01:38:44;;;;;;;5.70;1.67;;;13.30;99.90;;;;;;5085024;28;20194;-49
2022/11/08 01:41:14;;;;;;;4.33;1.63;;;13.30;99.90;;;;;;5075258;28;20190;-43
2022/11/08 01:43:44;;;;;;;2.10;1.23;;;13.30;99.90;;;;;;5084872;28;20213;-46
2022/11/08 01:46:36;;;;;;;2.67;1.53;;;13.20;99.90;;;;;;5079444;28;20197;-44
2022/11/08 01:49:26;;;;;;;5.83;1.60;;;13.20;99.90;;;;;;5080690;28;20197;-43
2022/11/08 01:52:02;;;;;;;3.80;1.60;;;13.20;99.90;;;;;;5067189;28;20201;-42
2022/11/08 01:54:36;;;;;;;5.93;1.40;;;13.20;99.90;;;;;;5079910;28;20240;-41
2022/11/08 01:57:07;;;;;;;9.67;1.50;;;13.20;99.90;;;;;;5080173;28;20592;-41
2022/11/08 01:59:37;;;;;;;3.93;1.60;;;13.20;99.90;;;;;;5079640;28;20556;-43
2022/11/08 02:02:04;;;;;;;2.60;1.30;;;13.10;99.90;;;;;;5080548;28;20202;-43
2022/11/08 02:04:31;;;;;;;3.90;1.37;;;13.10;99.90;;;;;;5075890;28;20305;-42
2022/11/08 02:06:59;;;;;;;6.57;1.70;;;13.10;99.90;;;;;;5063772;28;20206;-43
2022/11/08 02:09:27;;;;;;;3.87;1.60;;;13.10;99.90;;;;;;5082912;28;20204;-42
2022/11/08 02:11:55;;;;;;;5.60;1.53;;;13.00;99.90;;;;;;5082447;28;20220;-44
2022/11/08 02:14:24;;;;;;;3.40;1.90;;;13.00;99.90;;;;;;5080843;28;20284;-43
2022/11/08 02:16:51;;;;;;;5.00;1.50;;;13.00;99.90;;;;;;5077679;28;20201;-43
2022/11/08 02:19:29;;;;;;;6.50;1.60;;;12.90;99.90;;;;;;5081605;28;20268;-42
2022/11/08 02:22:01;;;;;;;4.63;1.50;;;13.00;99.90;;;;;;5063936;28;20213;-45
2022/11/08 02:24:29;;;;;;;6.93;1.60;;;12.90;99.90;;;;;;5082386;28;20683;-42
2022/11/08 02:26:57;;;;;;;6.83;1.67;;;12.90;99.90;;;;;;5081566;28;20230;-43
2022/11/08 02:29:29;;;;;;;6.00;1.57;;;13.00;99.90;;;;;;5082841;28;20209;-42
2022/11/08 02:31:57;;;;;;;4.03;1.50;;;13.00;99.90;;;;;;5076762;28;20296;-45
2022/11/08 02:34:28;;;;;;;3.70;1.53;;;12.90;99.90;;;;;;5081647;28;20218;-42
2022/11/08 02:36:55;;;;;;;2.57;1.37;;;13.00;99.90;;;;;;5066143;28;20206;-42
2022/11/08 02:39:22;;;;;;;4.60;1.73;;;13.00;99.90;;;;;;5082392;28;20178;-42
2022/11/08 02:42:14;;;;;;;5.00;1.70;;;13.00;99.90;;;;;;5080133;28;20340;-42
2022/11/08 02:44:42;;;;;;;2.83;1.47;;;13.00;99.90;;;;;;5082723;28;20221;-41
2022/11/08 02:47:09;;;;;;;4.17;1.83;;;13.00;99.90;;;;;;5074551;28;20911;-44
2022/11/08 02:49:35;;;;;;;5.17;1.47;;;13.10;99.90;;;;;;5083508;28;20204;-42
2022/11/08 02:52:02;;;;;;;4.63;1.70;;;13.10;99.90;;;;;;5066033;28;20220;-44
2022/11/08 02:54:29;;;;;;;3.33;1.33;;;13.10;99.90;;;;;;5082051;28;20226;-42
2022/11/08 02:56:56;;;;;;;4.23;1.90;;;13.10;99.90;;;;;;5081165;28;20198;-43
2022/11/08 02:59:24;;;;;;;3.37;1.30;;;13.10;99.90;;;;;;5082252;28;20512;-42
2022/11/08 03:01:51;;;;;;;8.07;1.93;;;13.20;99.90;;;;;;5077111;28;20202;-42
2022/11/08 03:04:18;;;;;;;3.77;1.10;;;13.20;99.90;;;;;;5080189;28;20237;-42
2022/11/08 03:06:45;;;;;;;4.00;1.37;;;13.20;99.90;;;;;;5082820;28;20213;-44
2022/11/08 03:09:12;;;;;;;2.63;1.70;;;13.30;99.90;;;;;;5064568;28;20209;-42
2022/11/08 03:11:39;;;;;;;6.47;2.00;;;13.30;99.90;;;;;;5083666;28;20638;-44
2022/11/08 03:14:06;;;;;;;3.93;1.40;;;13.30;99.90;;;;;;5079583;28;20226;-45
2022/11/08 03:16:34;;;;;;;5.17;1.80;;;13.30;99.90;;;;;;5082263;28;20197;-44
2022/11/08 03:19:01;;;;;;;3.73;1.53;;;13.40;99.90;;;;;;5080107;28;20200;-45
2022/11/08 03:21:28;;;;;;;6.03;1.87;;;13.30;99.90;;;;;;5082254;28;20197;-44
2022/11/08 03:23:55;;;;;;;4.37;1.60;;;13.30;99.90;;;;;;5075321;28;20210;-46
2022/11/08 03:26:22;;;;;;;5.50;1.90;;;13.30;99.90;;;;;;5084851;28;20194;-47
2022/11/08 03:28:48;;;;;;;4.13;1.70;;;13.30;99.90;;;;;;5086778;28;20205;-45
2022/11/08 03:31:15;;;;;;;6.43;1.60;;;13.30;99.90;;;;;;5084834;28;20182;-44
2022/11/08 03:33:44;;;;;;;5.40;1.40;;;13.30;99.90;;;;;;5085241;28;20700;-44
2022/11/08 03:36:11;;;;;;;3.27;1.30;;;13.30;99.90;;;;;;5083797;28;20204;-45
2022/11/08 03:38:38;;;;;;;3.57;1.50;;;13.20;99.90;;;;;;5087287;28;20556;-44
2022/11/08 03:41:05;;;;;;;6.30;1.83;;;13.30;99.90;;;;;;5077232;28;20202;-44
2022/11/08 03:43:31;;;;;;;1.83;1.07;;;13.20;99.90;;;;;;5086945;28;20214;-48
2022/11/08 03:45:58;;;;;;;2.77;1.10;;;13.20;99.90;;;;;;5084595;28;20190;-48
2022/11/08 03:48:25;;;;;;;4.47;1.87;;;13.10;99.90;;;;;;5085234;28;20198;-44
2022/11/08 03:50:54;;;;;;;3.53;1.70;;;13.10;99.90;;;;;;5085769;28;20280;-44
2022/11/08 03:53:20;;;;;;;2.83;1.90;;;13.10;99.90;;;;;;5085069;28;20985;-45
2022/11/08 03:55:47;;;;;;;4.07;1.63;;;13.10;99.90;;;;;;5080885;28;20209;-44
2022/11/08 03:58:14;;;;;;;4.33;1.53;;;13.00;99.90;;;;;;5084065;28;20720;-44
2022/11/08 04:00:41;;;;;;;3.30;1.60;;;13.00;99.90;;;;;;5086820;28;20210;-44
2022/11/08 04:03:09;;;;;;;6.47;1.57;;;12.90;99.90;;;;;;5081027;28;20280;-44
2022/11/08 04:05:36;;;;;;;4.77;1.57;;;12.90;99.90;;;;;;5086387;28;20694;-44
2022/11/08 04:08:05;;;;;;;5.67;1.90;;;12.90;99.90;;;;;;5080043;28;20206;-46
2022/11/08 04:10:34;;;;;;;6.57;1.80;;;12.80;99.90;;;;;;5080179;28;20215;-43
2022/11/08 04:15:47;;;;;;;3.03;1.40;;;12.80;99.90;;;;;;5066140;28;20200;-43
2022/11/08 04:21:18;;;;;;;4.23;1.27;;;12.70;99.90;;;;;;5083637;28;20240;-44
2022/11/08 04:23:48;;;;;;;5.07;1.90;;;12.70;99.90;;;;;;5085915;28;20697;-45
2022/11/08 04:26:15;;;;;;;5.33;1.90;;;12.70;99.90;;;;;;5077240;28;20210;-47
2022/11/08 04:28:42;;;;;;;3.67;1.80;;;12.70;99.90;;;;;;5086219;28;20205;-43
2022/11/08 04:31:12;;;;;;;3.67;1.90;;;12.70;99.90;;;;;;5082256;28;20194;-44
2022/11/08 04:33:39;;;;;;;4.60;1.57;;;12.70;99.90;;;;;;5085840;28;20206;-43
2022/11/08 04:36:09;;;;;;;6.30;1.67;;;12.70;99.90;;;;;;5080587;28;20293;-43
2022/11/08 04:38:36;;;;;;;4.67;1.53;;;12.60;99.90;;;;;;5072726;28;20677;-44
2022/11/08 04:41:05;;;;;;;4.93;1.37;;;12.60;99.90;;;;;;5075791;28;20198;-43
2022/11/08 04:43:33;;;;;;;2.40;1.80;;;12.60;99.90;;;;;;5079164;28;20205;-44
2022/11/08 04:46:01;;;;;;;6.10;1.90;;;12.50;99.90;;;;;;5082521;28;20201;-45
2022/11/08 04:48:29;;;;;;;4.63;1.67;;;12.50;99.90;;;;;;5085990;28;20199;-43
2022/11/08 04:51:01;;;;;;;5.80;1.97;;;12.50;99.90;;;;;;5081659;28;20659;-46
2022/11/08 04:53:28;;;;;;;3.67;1.50;;;12.50;99.90;;;;;;5085561;28;20194;-44
2022/11/08 04:56:00;;;;;;;4.67;1.70;;;12.50;99.90;;;;;;5079814;28;20204;-44
2022/11/08 04:58:30;;;;;;;2.27;1.50;;;12.40;99.90;;;;;;5084590;28;20662;-45
2022/11/08 05:01:00;;;;;;;5.67;1.60;;;12.50;99.90;;;;;;5077596;28;20198;-44
2022/11/08 05:03:27;;;;;;;3.87;1.40;;;12.40;99.90;;;;;;5081661;28;20259;-46
2022/11/08 05:05:54;;;;;;;5.73;1.63;;;12.40;99.90;;;;;;5083508;28;20198;-43
2022/11/08 05:08:21;;;;;;;5.97;1.77;;;12.40;99.90;;;;;;5081691;28;20198;-46
2022/11/08 05:10:48;;;;;;;4.17;1.50;;;12.40;99.90;;;;;;5082048;28;20210;-45
2022/11/08 05:13:14;;;;;;;3.57;1.60;;;12.40;99.90;;;;;;5077467;28;20213;-44
2022/11/08 05:15:43;;;;;;;10.30;2.87;;;12.30;99.90;;;;;;5082579;28;20237;-43
2022/11/08 05:18:10;;;;;;;3.77;1.60;;;12.30;99.90;;;;;;5083506;28;20205;-44
2022/11/08 05:23:24;;;;;;;6.67;1.67;;;12.30;99.90;;;;;;5081109;28;20190;-48
2022/11/08 05:25:54;;;;;;;6.43;2.30;;;12.30;99.90;;;;;;5084353;28;20198;-44
2022/11/08 05:28:21;;;;;;;6.33;2.10;;;12.30;99.90;;;;;;5076704;28;20236;-47
2022/11/08 05:30:56;;;;;;;6.90;2.00;;;12.30;99.90;;;;;;5081850;28;20194;-44
2022/11/08 05:33:24;;;;;;;5.77;2.17;;;12.20;99.90;;;;;;5068851;28;20206;-45
2022/11/08 05:35:52;;;;;;;4.87;1.80;;;12.20;99.90;;;;;;5084054;28;20200;-46
2022/11/08 05:38:19;;;;;;;6.37;2.03;;;12.20;99.90;;;;;;5081964;28;20205;-44
2022/11/08 05:40:46;;;;;;;4.17;1.90;;;12.20;99.90;;;;;;5078370;28;20213;-45
2022/11/08 05:43:13;;;;;;;7.57;2.67;;;12.10;99.90;;;;;;5076478;28;20210;-43
2022/11/08 05:45:40;;;;;;;8.77;2.00;;;12.10;99.90;;;;;;5073153;28;20217;-44
2022/11/08 05:48:08;;;;;;;7.80;2.00;;;12.10;99.90;;;;;;5079664;28;20205;-45
2022/11/08 05:50:36;;;;;;;4.73;1.97;;;12.10;99.90;;;;;;5077356;28;20211;-45
2022/11/08 05:53:10;;;;;;;6.37;1.47;;;12.00;99.90;;;;;;5073847;28;20236;-43
2022/11/08 05:55:37;;;;;;;4.73;1.63;;;12.00;99.90;;;;;;5079287;28;20205;-47
2022/11/08 05:58:04;;;;;;;5.13;1.93;;;12.00;99.90;;;;;;5077838;28;20198;-44
2022/11/08 06:00:31;;;;;;;7.13;1.70;;;12.00;99.90;;;;;;5076745;28;20208;-46
2022/11/08 06:02:58;;;;;;;3.83;1.80;;;11.90;99.90;;;;;;5080222;28;20221;-44
2022/11/08 06:05:27;;;;;;;4.00;1.70;;;11.90;99.90;;;;;;5080191;28;20618;-47
2022/11/08 06:07:53;;;;;;;5.40;1.93;;;11.90;99.90;;;;;;5079800;28;20224;-47
2022/11/08 06:10:21;;;;;;;6.33;2.20;;;11.90;99.90;;;;;;5079797;28;20198;-44
2022/11/08 06:12:49;;;;;;;3.40;1.70;;;11.90;99.90;;;;;;5082782;28;20651;-46
2022/11/08 06:15:16;;;;;;;4.63;1.60;;;11.90;99.90;;;;;;5071493;28;20694;-44
2022/11/08 06:17:43;;;;;;;7.97;2.30;;;11.80;99.90;;;;;;5081344;28;20239;-45
2022/11/08 06:20:12;;;;;;;5.00;1.60;;;11.80;99.90;;;;;;5077539;28;20202;-46
2022/11/08 06:22:42;;;;;;;8.80;1.83;;;11.80;99.90;;;;;;5075267;28;20206;-47
2022/11/08 06:25:09;;;;;;;6.27;2.00;;;11.80;99.90;;;;;;5078380;28;20300;-50
2022/11/08 06:27:36;;;;;;;3.03;1.73;;;11.80;99.90;;;;;;5077751;28;20212;-44
2022/11/08 06:30:04;;;;;;;4.33;2.20;;;11.80;99.90;;;;;;5066357;28;20201;-47
2022/11/08 06:32:31;;;;;;;6.03;2.00;;;11.70;99.90;;;;;;5080148;28;20214;-47
2022/11/08 06:34:57;;;;;;;4.03;1.60;;;11.70;99.90;;;;;;5071191;28;20236;-46
2022/11/08 06:37:24;;;;;;;7.00;1.80;;;11.70;99.90;;;;;;5081847;28;20202;-45
2022/11/08 06:39:52;;;;;;;4.00;1.73;;;11.70;99.90;;;;;;5076379;28;20197;-46
2022/11/08 06:42:19;;;;;;;3.97;2.20;;;11.70;99.90;;;;;;5078553;28;20272;-46
2022/11/08 06:44:46;;;;;;;4.10;1.80;;;11.70;99.90;;;;;;5067629;28;20210;-44
2022/11/08 06:47:13;;;;;;;3.23;1.80;;;11.70;99.90;;;;;;5079363;28;20204;-49
2022/11/08 06:49:40;;;;;;;3.40;1.83;;;11.70;99.90;;;;;;5077514;28;20212;-49
2022/11/08 06:52:06;;;;;;;4.87;1.50;;;11.70;99.90;;;;;;5074412;28;20233;-47
2022/11/08 06:54:33;;;;;;;5.07;1.50;;;11.70;99.90;;;;;;5080452;28;20221;-45
2022/11/08 06:57:02;;;;;;;6.60;1.80;;;11.70;99.90;;;;;;5077926;28;20674;-50
2022/11/08 06:59:29;;;;;;;4.47;2.20;;;11.70;99.90;;;;;;5080223;28;20237;-45
2022/11/08 07:02:18;;;;;;;3.13;1.70;;;11.70;99.90;;;;;;5073586;28;20391;-44
2022/11/08 07:04:45;;;;;;;5.87;1.73;;;11.70;99.90;;;;;;5081240;28;20260;-46
2022/11/08 07:07:12;;;;;;;4.50;1.57;;;11.60;99.90;;;;;;5077558;28;20777;-48
2022/11/08 07:09:39;;;;;;;2.23;1.60;;;11.60;99.90;;;;;;5076368;28;20229;-47
2022/11/08 07:12:08;;;;;;;5.00;1.97;;;11.60;99.90;;;;;;5067496;28;20203;-49
2022/11/08 07:14:35;;;;;;;4.70;1.80;;;11.60;99.90;;;;;;5076586;28;20214;-46
2022/11/08 07:17:02;;;;;;;5.67;1.90;;;11.60;99.90;;;;;;5071798;28;20240;-46
2022/11/08 07:19:29;;;;;;;9.10;2.17;;;11.60;99.90;;;;;;5080605;28;20251;-50
2022/11/08 07:21:56;;;;;;;8.93;2.03;;;11.50;99.90;;;;;;5074752;28;20205;-44
2022/11/08 07:24:23;;;;;;;3.97;1.73;;;11.50;99.90;;;;;;5079048;28;20217;-43
2022/11/08 07:26:50;;;;;;;5.40;1.83;;;11.50;99.90;;;;;;5081915;28;20194;-51
2022/11/08 07:29:19;;;;;;;3.20;1.60;;;11.50;99.90;;;;;;5076621;28;20990;-44
2022/11/08 07:31:46;;;;;;;5.70;1.93;;;11.50;99.90;;;;;;5075302;28;20281;-46
2022/11/08 07:34:13;;;;;;;3.90;2.10;;;11.50;99.90;;;;;;5075640;28;20224;-46
2022/11/08 07:36:40;;;;;;;8.70;1.83;;;11.50;99.90;;;;;;5082713;28;20834;-44
2022/11/08 07:39:06;;;;;;;4.73;1.50;;;11.50;99.90;;;;;;5068815;28;20199;-44
2022/11/08 07:41:33;;;;;;;3.83;1.80;;;11.60;99.90;;;;;;5078086;28;20259;-44
2022/11/08 07:44:00;;;;;;;3.30;1.67;;;11.60;99.90;;;;;;5079043;28;20582;-46
2022/11/08 07:46:29;;;;;;;4.47;1.73;;;11.70;99.90;;;;;;5070888;28;20213;-44
2022/11/08 07:48:56;;;;;;;3.13;1.60;;;11.70;99.90;;;;;;5072103;28;20198;-45
2022/11/08 07:51:22;;;;;;;4.90;1.80;;;11.80;99.90;;;;;;5074771;28;20214;-44
2022/11/08 07:53:49;;;;;;;3.33;2.00;;;11.80;99.90;;;;;;5080868;28;20218;-46
2022/11/08 07:56:16;;;;;;;3.97;2.00;;;11.90;99.90;;;;;;5073316;28;20221;-45
2022/11/08 07:58:42;;;;;;;4.40;1.50;;;11.90;99.90;;;;;;5081230;28;20209;-44
2022/11/08 08:01:09;;;;;;;4.47;2.17;;;11.90;99.90;;;;;;5067659;28;20428;-44
2022/11/08 08:03:37;;;;;;;2.37;1.57;;;12.00;99.90;;;;;;5081184;28;20201;-46
2022/11/08 08:06:04;;;;;;;4.03;2.00;;;12.00;99.90;;;;;;5075897;28;20191;-49
2022/11/08 08:08:35;;;;;;;4.33;1.83;;;12.10;99.90;;;;;;5073826;28;20218;-45
2022/11/08 08:11:02;;;;;;;5.00;1.80;;;12.10;99.90;;;;;;5076507;28;20209;-48
2022/11/08 08:13:29;;;;;;;5.67;2.53;;;12.10;99.90;;;;;;5077961;28;20227;-47
2022/11/08 08:16:00;;;;;;;5.17;2.20;;;12.20;99.90;;;;;;5077230;28;20289;-45
2022/11/08 08:18:53;;;;;;;5.87;2.13;;;12.20;99.90;;;;;;5072564;28;20210;-44
2022/11/08 08:21:20;;;;;;;6.90;1.83;;;12.30;99.90;;;;;;5079032;28;20281;-44
2022/11/08 08:23:47;;;;;;;5.07;1.77;;;12.40;99.90;;;;;;5082628;28;20229;-45
2022/11/08 08:26:14;;;;;;;4.00;2.40;;;12.50;99.90;;;;;;5079392;28;20202;-44
2022/11/08 08:28:40;;;;;;;5.57;2.00;;;12.60;99.90;;;;;;5079023;28;20198;-44
2022/11/08 08:31:07;;;;;;;3.13;1.50;;;12.80;99.90;;;;;;5074324;28;20197;-44
2022/11/08 08:33:38;;;;;;;4.90;1.83;;;12.90;99.90;;;;;;5074243;28;20292;-46
2022/11/08 08:36:06;;;;;;;5.07;2.10;;;12.90;99.90;;;;;;5076921;28;20214;-44
2022/11/08 08:38:34;;;;;;;5.50;1.40;;;12.90;99.90;;;;;;5073766;28;20267;-44
2022/11/08 08:41:03;;;;;;;2.77;2.20;;;13.00;99.90;;;;;;5070405;28;20204;-45
2022/11/08 08:43:32;;;;;;;2.10;1.50;;;13.00;99.90;;;;;;5078015;28;20209;-46
2022/11/08 08:46:05;;;;;;;7.67;2.03;;;13.00;99.90;;;;;;5071623;28;20284;-44
2022/11/08 08:48:34;;;;;;;4.57;1.73;;;13.00;99.90;;;;;;5074758;28;20210;-45
2022/11/08 08:51:01;;;;;;;5.23;1.60;;;13.10;99.90;;;;;;5068281;28;20214;-45
2022/11/08 08:53:33;;;;;;;4.20;1.63;;;13.10;99.90;;;;;;5075317;28;20202;-44
2022/11/08 08:56:01;;;;;;;5.57;2.13;;;13.10;99.90;;;;;;5075272;28;20229;-45
2022/11/08 08:58:27;;;;;;;5.00;1.90;;;13.10;99.90;;;;;;5078870;28;20251;-44
2022/11/08 09:01:00;;;;;;;3.90;1.40;;;13.20;99.90;;;;;;5073114;28;20848;-47
2022/11/08 09:03:34;;;;;;;2.93;1.63;;;13.10;99.90;;;;;;5079411;28;20198;-48
2022/11/08 09:06:01;;;;;;;1.20;1.10;;;13.20;99.90;;;;;;5072487;28;20209;-45
2022/11/08 09:08:29;;;;;;;5.23;1.43;;;13.20;99.90;;;;;;5081989;28;20216;-45
2022/11/08 09:10:59;;;;;;;4.60;1.50;;;13.20;99.90;;;;;;5074553;28;20561;-46
2022/11/08 09:13:27;;;;;;;2.50;1.27;;;13.30;99.90;;;;;;5075535;28;20258;-44
2022/11/08 09:15:54;;;;;;;1.97;1.40;;;13.30;99.90;;;;;;5081286;28;20218;-45
2022/11/08 09:18:21;;;;;;;5.07;1.93;;;13.30;99.90;;;;;;5082353;28;20865;-44
2022/11/08 09:20:48;;;;;;;5.53;1.63;;;13.40;99.90;;;;;;5074189;28;20198;-44
2022/11/08 09:23:16;;;;;;;3.20;1.60;;;13.40;99.90;;;;;;5080791;28;20213;-44
2022/11/08 09:25:43;;;;;;;4.37;1.53;;;13.50;99.90;;;;;;5082411;28;20214;-46
2022/11/08 09:28:11;;;;;;;4.97;1.80;;;13.60;99.90;;;;;;5079331;28;21145;-44
2022/11/08 09:30:37;;;;;;;3.27;1.33;;;13.60;99.90;;;;;;5085172;28;20194;-46
2022/11/08 09:33:04;;;;;;;3.90;1.40;;;13.70;99.90;;;;;;5080509;28;20276;-44
2022/11/08 09:35:32;;;;;;;4.27;1.73;;;13.80;99.90;;;;;;5081026;28;20229;-44
2022/11/08 09:37:59;;;;;;;5.30;1.50;;;13.80;99.90;;;;;;5074930;28;20666;-47
2022/11/08 09:40:31;;;;;;;3.00;1.60;;;13.80;99.90;;;;;;5078409;28;20222;-48
2022/11/08 09:43:09;;;;;;;3.20;1.30;;;13.80;99.90;;;;;;5081724;28;20210;-49
2022/11/08 09:45:44;;;;;;;2.87;1.43;;;13.80;99.90;;;;;;5077846;28;20237;-48
2022/11/08 09:48:22;;;;;;;3.70;1.50;;;13.80;99.90;;;;;;5080900;28;20597;-46
2022/11/08 09:50:51;;;;;;;4.93;1.53;;;13.80;99.90;;;;;;5079907;28;20221;-45
2022/11/08 09:53:24;;;;;;;3.53;1.53;;;13.90;99.90;;;;;;5076118;28;20950;-49
2022/11/08 09:55:56;;;;;;;3.93;1.83;;;13.90;99.90;;;;;;5077828;28;20241;-44
2022/11/08 09:58:30;;;;;;;5.37;1.30;;;13.90;99.90;;;;;;5082765;28;20182;-44
2022/11/08 10:00:59;;;;;;;3.30;1.10;;;13.90;99.90;;;;;;5080690;28;20225;-44
2022/11/08 10:03:26;;;;;;;4.20;1.60;;;13.90;99.90;;;;;;5076382;28;20194;-50
2022/11/08 10:06:18;;;;;;;4.20;1.57;;;13.90;99.90;;;;;;5078603;28;20273;-49
2022/11/08 10:08:53;;;;;;;4.50;1.53;;;13.80;99.90;;;;;;5078901;28;20190;-48
2022/11/08 10:11:33;;;;;;;3.87;1.60;;;13.80;99.90;;;;;;5080664;28;20201;-46
2022/11/08 10:14:20;;;;;;;5.30;1.47;;;13.80;99.90;;;;;;5079098;28;20796;-44
2022/11/08 10:16:55;;;;;;;3.80;1.50;;;13.80;99.90;;;;;;5082871;28;20722;-46
2022/11/08 10:19:38;;;;;;;2.10;1.37;;;13.80;99.90;;;;;;5078791;28;20213;-46
2022/11/08 10:22:11;;;;;;;2.70;1.30;;;13.80;99.90;;;;;;5070038;28;20998;-44
2022/11/08 10:24:47;;;;;;;4.00;1.37;;;13.80;99.90;;;;;;5072434;28;20230;-47
2022/11/08 10:27:16;;;;;;;2.30;1.30;;;13.80;99.90;;;;;;5069995;28;20201;-44
2022/11/08 10:29:45;;;;;;;3.33;1.40;;;13.80;99.90;;;;;;5080985;28;20202;-44
2022/11/08 10:32:19;;;;;;;3.73;1.50;;;13.80;99.90;;;;;;5077309;28;20202;-45
2022/11/08 10:34:53;;;;;;;4.63;1.50;;;13.80;99.90;;;;;;5078521;28;20851;-44
2022/11/08 10:37:21;;;;;;;2.53;1.27;;;13.80;99.90;;;;;;5069659;28;21097;-44
2022/11/08 10:39:55;;;;;;;1.67;1.10;;;13.80;99.90;;;;;;5084002;28;20221;-48
2022/11/08 10:42:34;;;;;;;6.53;1.70;;;13.80;99.90;;;;;;5076585;28;20198;-50
2022/11/08 10:45:01;;;;;;;5.47;1.50;;;13.80;99.90;;;;;;5081974;28;20221;-49
2022/11/08 10:47:31;;;;;;;4.17;1.60;;;13.90;99.90;;;;;;5079009;28;20178;-44
2022/11/08 10:49:58;;;;;;;2.27;1.60;;;13.90;99.90;;;;;;5078910;28;20655;-45
2022/11/08 10:52:31;;;;;;;6.47;1.57;;;13.90;99.90;;;;;;5065158;28;20210;-43
2022/11/08 10:55:00;;;;;;;4.57;1.73;;;13.90;99.90;;;;;;5080241;28;20221;-43
2022/11/08 10:57:37;;;;;;;3.67;1.63;;;14.00;99.90;;;;;;5071953;28;20228;-41
2022/11/08 11:00:24;;;;;;;4.30;1.50;;;14.00;99.90;;;;;;5068588;28;20561;-44
2022/11/08 11:02:55;;;;;;;3.00;1.70;;;14.00;99.90;;;;;;5074254;28;20263;-42
2022/11/08 11:05:29;;;;;;;5.67;1.73;;;14.00;99.90;;;;;;5068182;28;20218;-43
2022/11/08 11:08:03;;;;;;;4.73;1.90;;;14.00;99.90;;;;;;5072489;28;20201;-45
2022/11/08 11:10:32;;;;;;;3.80;1.40;;;14.00;99.90;;;;;;5064918;28;23053;-46
2022/11/08 11:13:06;;;;;;;3.00;1.30;;;14.10;99.90;;;;;;5071507;28;20213;-41
2022/11/08 11:15:36;;;;;;;2.63;1.40;;;14.10;99.90;;;;;;5068874;28;20265;-44
2022/11/08 11:18:16;;;;;;;1.40;1.30;;;14.10;99.90;;;;;;5077945;28;20205;-42
2022/11/08 11:20:56;;;;;;;2.43;1.50;;;14.20;99.90;;;;;;5076761;28;20200;-40
2022/11/08 11:23:25;;;;;;;2.13;1.30;;;14.30;99.90;;;;;;5074202;28;20198;-44
2022/11/08 11:25:51;;;;;;;3.23;1.40;;;14.30;99.90;;;;;;5064404;28;20205;-43
2022/11/08 11:28:18;;;;;;;5.30;1.53;;;14.40;99.90;;;;;;5067700;28;20780;-41
2022/11/08 11:30:59;;;;;;;3.73;1.33;;;14.40;99.90;;;;;;5069678;28;20251;-41
2022/11/08 11:33:29;;;;;;;3.63;1.30;;;14.50;99.90;;;;;;5072034;28;21005;-42
2022/11/08 11:36:03;;;;;;;3.73;1.30;;;14.50;99.90;;;;;;5077884;28;20222;-45
2022/11/08 11:38:37;;;;;;;5.40;1.70;;;14.50;99.90;;;;;;5076859;28;20182;-41
2022/11/08 11:41:13;;;;;;;2.90;1.60;;;14.60;99.90;;;;;;5060655;28;20211;-42
2022/11/08 11:43:46;;;;;;;2.80;2.17;;;14.70;99.90;;;;;;5067482;28;20201;-44
2022/11/08 11:46:19;;;;;;;3.33;1.07;;;14.80;99.90;;;;;;5070728;28;20202;-42
2022/11/08 11:48:53;;;;;;;2.90;1.10;;;14.80;99.90;;;;;;5077154;28;20198;-41
2022/11/08 11:51:21;;;;;;;3.37;1.37;;;14.80;99.90;;;;;;5078674;28;20185;-41
2022/11/08 11:53:48;;;;;;;4.47;1.73;;;14.80;99.90;;;;;;5079696;28;20218;-41
2022/11/08 11:56:34;;;;;;;4.07;1.30;;;14.80;99.90;;;;;;5064800;28;20903;-43
2022/11/08 11:59:37;;;;;;;5.27;1.50;;;14.90;99.90;;;;;;5076092;28;20220;-41
2022/11/08 12:02:28;;;;;;;3.70;1.20;;;14.90;99.90;;;;;;5075616;28;20283;-43
2022/11/08 12:05:13;;;;;;;3.60;1.20;;;14.90;99.90;;;;;;5077251;28;20215;-44
2022/11/08 12:07:43;;;;;;;1.40;1.20;;;14.90;99.90;;;;;;5081905;28;20190;-43
2022/11/08 12:10:19;;;;;;;2.50;1.20;;;14.90;99.90;;;;;;5065931;28;20194;-43
2022/11/08 12:12:57;;;;;;;1.43;1.30;;;15.00;99.90;;;;;;5074398;28;20202;-42
2022/11/08 12:15:31;;;;;;;2.63;1.00;;;15.10;99.90;;;;;;5069035;28;20623;-46
2022/11/08 12:18:20;;;;;;;2.03;1.23;;;15.10;99.90;;;;;;5074242;28;20208;-41
2022/11/08 12:21:14;;;;;;;2.37;1.20;;;15.10;99.90;;;;;;5077356;28;20233;-44
2022/11/08 12:23:51;;;;;;;3.77;1.13;;;15.20;99.90;;;;;;5074024;28;20251;-42
2022/11/08 12:26:23;;;;;;;4.77;1.43;;;15.20;99.90;;;;;;5060014;28;20202;-43
2022/11/08 12:29:02;;;;;;;5.07;1.60;;;15.20;99.90;;;;;;5075151;28;20201;-41
2022/11/08 12:31:33;;;;;;;1.63;0.83;;;15.20;99.90;;;;;;5072034;28;20209;-42
2022/11/08 12:34:17;;;;;;;4.60;1.33;;;15.20;99.90;;;;;;5072331;28;20267;-43
2022/11/08 12:36:54;;;;;;;1.67;1.10;;;15.20;99.90;;;;;;5077880;28;20228;-43
2022/11/08 12:39:32;;;;;;;2.30;0.97;;;15.20;99.90;;;;;;5072151;28;20198;-42
2022/11/08 12:42:13;;;;;;;3.00;1.13;;;15.20;99.90;;;;;;5065129;28;20208;-43
2022/11/08 12:44:57;;;;;;;2.77;1.40;;;15.20;99.90;;;;;;5071327;28;20260;-43
2022/11/08 12:47:35;;;;;;;1.97;1.23;;;15.20;99.90;;;;;;5066392;28;20207;-41
2022/11/08 12:50:13;;;;;;;3.23;1.17;;;15.20;99.90;;;;;;5071753;28;20211;-42
2022/11/08 12:52:58;;;;;;;3.73;1.00;;;15.30;99.90;;;;;;5067468;28;20206;-41
2022/11/08 12:55:29;;;;;;;4.63;1.30;;;15.30;99.90;;;;;;5075404;28;20218;-40
2022/11/08 12:57:59;;;;;;;1.00;0.80;;;15.30;99.90;;;;;;5059417;28;20698;-43
2022/11/08 13:00:28;;;;;;;3.10;1.10;;;15.40;99.90;;;;;;5074619;28;20205;-42
2022/11/08 13:03:08;;;;;;;2.10;1.17;;;15.40;99.90;;;;;;5076214;28;20290;-42
2022/11/08 13:05:40;;;;;;;1.63;0.77;;;15.40;99.90;;;;;;5070369;28;20228;-42
2022/11/08 13:08:12;;;;;;;2.37;1.37;;;15.50;99.90;;;;;;5077362;28;20205;-41
2022/11/08 13:10:50;;;;;;;1.70;0.97;;;15.50;99.90;;;;;;5079845;28;20202;-43
2022/11/08 13:13:27;;;;;;;3.07;1.00;;;15.50;99.90;;;;;;5057759;28;20198;-47
2022/11/08 13:16:10;;;;;;;2.27;0.90;;;15.50;99.90;;;;;;5074027;28;20588;-44
2022/11/08 13:18:44;;;;;;;4.53;1.20;;;15.50;99.90;;;;;;5069217;28;20206;-42
2022/11/08 13:21:36;;;;;;;1.83;1.00;;;15.50;99.90;;;;;;5074929;28;20295;-42